Metar Cercanos

 

LEPA - Palma De Mallorc, Spain
Distance from station: ONO 38km
Actualización: 21/08/2017 01:00
Despejado
Despejado
 Viento del E
Viento: E 2 km/h
Temperatura: 22°C
Rocío: 15°C
Humedad: 65%
Barómetro: 1021 hPa
Resumen: Despejado
Visibility: greater than 10 km
2017/08/20 23:00 LEPA 202300Z 08001KT CAVOK 22/15 Q1021 NOSIG
LEMH - Mahon/Menorca Is, Spain
Distance from station: ENE 105km
Actualización: 21/08/2017 01:00
Despejado
Despejado
 Viento del N
Viento: N 6 km/h
Temperatura: 20°C
Rocío: 11°C
Humedad: 56%
Barómetro: 1021 hPa
Clouds: Despejado
Visibility: 10 km
2017/08/20 23:00 LEMH 202300Z AUTO 01003KT 9999 NCD 20/11 Q1021
 
LEIB - Ibiza/Es Codola, Spain
Distance from station: OSO 165km
Actualización: 21/08/2017 01:00
Despejado
Despejado
 Viento del E
Viento: E 9 km/h
Temperatura: 25°C
Rocío: 18°C
Humedad: 65%
Barómetro: 1020 hPa
Resumen: Despejado
Visibility: greater than 10 km
2017/08/20 23:00 LEIB 202300Z 10005KT CAVOK 25/18 Q1020 NOSIG
LEBL - Barcelona Airpor, Spain
Distance from station: NNO 225km
Actualización: 21/08/2017 01:00
Parcialmente nuboso
Parcialmente nuboso
 Viento del NO
Viento: NO 7 km/h
Temperatura: 24°C
Rocío: 21°C
Humedad: 83%
Barómetro: 1021 hPa
Clouds: Parcialmente nuboso
Visibility: 10 km
Cloud details: Parcialmente nuboso 549 m
2017/08/20 23:00 LEBL 202300Z 31004KT 9999 SCT018 24/21 Q1021 NOSIG
 
LEVC - Valencia (civ/Mi, Spain
Distance from station: NO 188km
Actualización: 21/08/2017 01:00
Few Clouds
Few Clouds
 Viento del varies
Viento: varies 2 km/h
Temperatura: 26°C
Rocío: 21°C
Humedad: 74%
Barómetro: 1021 hPa
Clouds: Few Clouds
Visibility: 10 km
Cloud details: Few Clouds 762 m
2017/08/20 23:00 LEVC 202300Z VRB01KT 9999 FEW025 26/21 Q1021 NOSIG
LEGE - Gerona/Costa Bra, Spain
Distance from station: N 276km
Actualización: 21/08/2017 00:30
Few Clouds
Few Clouds
 Viento del varies
Viento: varies 4 km/h
Temperatura: 20°C
Rocío: 17°C
Humedad: 83%
Barómetro: 1021 hPa
Clouds: Few Clouds
Visibility: 10 km
Cloud details: Few Clouds 1219 m
2017/08/20 22:30 LEGE 202230Z VRB02KT 9999 FEW040 20/17 Q1021
 
LEAL - Alicante/El Alte, Spain
Distance from station: OSO 344km
Actualización: 21/08/2017 01:00
Despejado
Despejado
 Viento del NE
Viento: NE 7 km/h
Temperatura: 25°C
Rocío: 20°C
Humedad: 74%
Barómetro: 1020 hPa
Resumen: Despejado
Visibility: greater than 10 km
2017/08/20 23:00 LEAL 202300Z 05004KT 010V080 CAVOK 25/20 Q1020 NOSIG
LEAM - Almeria Airport, Spain
Distance from station: SSO 56km
Actualización: 21/08/2017 01:00
Despejado
Despejado
 Viento del NE
Viento: NE 9 km/h
Temperatura: 27°C
Indice Calor: 28°C
Rocío: 18°C
Humedad: 58%
Barómetro: 1018 hPa
Clouds: Despejado
Visibility: 10 km
2017/08/20 23:00 LEAM 202300Z AUTO 04005KT 010V070 9999 NCD 27/18 Q1018
 
LEZG - Zaragoza (mil/Ci, Spain
Distance from station: NO 431km
Actualización: 21/08/2017 01:00
Despejado
Despejado
 Viento del O
Viento: O 17 km/h
Temperatura: 21°C
Rocío: 12°C
Humedad: 57%
Barómetro: 1021 hPa
Resumen: Despejado
Visibility: greater than 10 km
2017/08/20 23:00 LEZG 202300Z 28009KT CAVOK 21/12 Q1021
LEMD - Madrid/Barajas, Spain
Distance from station: ONO 234km
Actualización: 21/08/2017 01:00
Despejado
Despejado
 Viento del NNO
Viento: NNO 15 km/h
Temperatura: 28°C
Rocío: 0°C
Humedad: 16%
Barómetro: 1020 hPa
Resumen: Despejado
Visibility: greater than 10 km
2017/08/20 23:00 LEMD 202300Z 34008KT 310V010 CAVOK 28/M00 Q1020 NOSIG
 
LEGR - Granada Airport, Spain
Distance from station: OSO 62km
Actualización: 21/08/2017 01:00
Despejado
Despejado
 Viento del S
Viento: S 22 km/h
Temperatura: 25°C
Rocío: 21°C
Humedad: 79%
Barómetro: 1020 hPa
Clouds: Despejado
Visibility: 10 km
2017/08/20 23:00 LEGR 202300Z AUTO 17012KT 9999 NCD 25/21 Q1020
LEMG - Malaga (civ/Mil), Spain
Distance from station: OSO 227km
Actualización: 21/08/2017 01:00
Muy nuboso
Muy nuboso
 Viento del SE
Viento: SE 7 km/h
Temperatura: 26°C
Rocío: 22°C
Humedad: 79%
Barómetro: 1019 hPa
Clouds: Muy nuboso
Visibility: 10 km
Cloud details: Parcialmente nuboso 457 m
Muy nuboso 762 m
2017/08/20 23:00 LEMG 202300Z 13004KT 100V190 9999 SCT015 BKN025 26/22 Q1019 NOSIG
 
LEZL - Sevilla (civ/Mil, Spain
Distance from station: S 318km
Actualización: 21/08/2017 01:00
Despejado
Despejado
 Viento del O
Viento: O 15 km/h
Temperatura: 29°C
Indice Calor: 30°C
Rocío: 19°C
Humedad: 55%
Barómetro: 1015 hPa
Resumen: Despejado
Visibility: greater than 10 km
2017/08/20 23:00 LEZL 202300Z 27008KT CAVOK 29/19 Q1015 NOSIG
LEVT - Vitoria, Spain
Distance from station: NO 226km
Actualización: 21/08/2017 01:00
Despejado
Despejado
 Viento del calm
Viento: Calma
Temperatura: 13°C
Rocío: 8°C
Humedad: 72%
Barómetro: 1024 hPa
Resumen: Despejado
Visibility: greater than 10 km
2017/08/20 23:00 LEVT 202300Z 00000KT CAVOK 13/08 Q1024
 
LEBB - Bilbao/Sondica, Spain
Distance from station: NNO 235km
Actualización: 21/08/2017 01:00
Despejado
Despejado
 Viento del varies
Viento: varies 2 km/h
Temperatura: 16°C
Rocío: 13°C
Humedad: 83%
Barómetro: 1023 hPa
Clouds: Despejado
Visibility: 10 km
2017/08/20 23:00 LEBB 202300Z AUTO VRB01KT 9999 NCD 16/13 Q1023
LESO - San Sebastian/Fu, Spain
Distance from station: N 231km
Actualización: 21/08/2017 01:00
Despejado
Despejado
 Viento del varies
Viento: varies 4 km/h
Temperatura: 17°C
Rocío: 15°C
Humedad: 88%
Barómetro: 1023 hPa
Clouds: Despejado
Visibility: 10 km
2017/08/20 23:00 LESO 202300Z AUTO VRB02KT 9999 NCD 17/15 Q1023
 
LEVD - Valladolid(Mil/C, Spain
Distance from station: ONO 239km
Actualización: 20/08/2017 21:30
NOT Current
Despejado
Despejado
 Viento del ENE
Viento: ENE 17 km/h
Temperatura: 25°C
Rocío: 4°C
Humedad: 26%
Barómetro: 1022 hPa
Resumen: Despejado
Visibility: greater than 10 km
2017/08/20 19:30 LEVD 201930Z 07009KT CAVOK 25/04 Q1022
LESA - Salamanca (civ/M, Spain
Distance from station: ONO 349km
Actualización: 20/08/2017 20:30
NOT Current
Despejado
Despejado
 Viento del NE
Viento: NE 9 km/h
Temperatura: 29°C
Rocío: 5°C
Humedad: 22%
Barómetro: 1020 hPa
Resumen: Despejado
Visibility: greater than 10 km
2017/08/20 18:30 LESA 201830Z 05005KT CAVOK 29/05 Q1020
 
LEXJ - Santander/Paraya, Spain
Distance from station: NNO 247km
Actualización: 21/08/2017 01:00
Despejado
Despejado
 Viento del E
Viento: E 9 km/h
Temperatura: 18°C
Rocío: 14°C
Humedad: 78%
Barómetro: 1021 hPa
Clouds: Despejado
Visibility: 9 km
2017/08/20 23:00 LEXJ 202300Z AUTO 09005KT 060V120 9000 NCD 18/14 Q1021
LEAS - Asturias/Aviles, Spain
Distance from station: NO 214km
Actualización: 21/08/2017 01:00
Despejado
Despejado
 Viento del E
Viento: E 2 km/h
Temperatura: 16°C
Rocío: 15°C
Humedad: 94%
Barómetro: 1021 hPa
Resumen: Despejado
Visibility: greater than 10 km
2017/08/20 23:00 LEAS 202300Z 09001KT CAVOK 16/15 Q1021 NOSIG
 
LECO - La Coruna/Alvedr, Spain
Distance from station: ONO 222km
Actualización: 21/08/2017 01:00
Despejado
Despejado
 Viento del calm
Viento: Calma
Temperatura: 20°C
Rocío: 14°C
Humedad: 69%
Barómetro: 1018 hPa
Resumen: Despejado
Visibility: greater than 10 km
2017/08/20 23:00 LECO 202300Z 00000KT CAVOK 20/14 Q1018 NOSIG
LEVX - Vigo/Peinador, Spain
Distance from station: O 214km
Actualización: 21/08/2017 01:00
Despejado
Despejado
 Viento del calm
Viento: Calma
Temperatura: 28°C
Indice Calor: 28°C
Rocío: 15°C
Humedad: 45%
Barómetro: 1017 hPa
Resumen: Despejado
Visibility: greater than 10 km
2017/08/20 23:00 LEVX 202300Z 00000KT CAVOK 28/15 Q1017 NOSIG